sensor_id;sensor_type;location;lat;lon;timestamp;temperature;humidity
68439;SHT31;55421;51.600;5.718;2024-02-28T00:00:13;2.93;85.23
68439;SHT31;55421;51.600;5.718;2024-02-28T00:03:00;2.94;85.26
68439;SHT31;55421;51.600;5.718;2024-02-28T00:05:27;2.94;85.28
68439;SHT31;55421;51.600;5.718;2024-02-28T00:07:53;2.95;85.19
68439;SHT31;55421;51.600;5.718;2024-02-28T00:10:20;2.92;85.08
68439;SHT31;55421;51.600;5.718;2024-02-28T00:12:46;2.88;85.01
68439;SHT31;55421;51.600;5.718;2024-02-28T00:15:13;2.84;84.86
68439;SHT31;55421;51.600;5.718;2024-02-28T00:17:40;2.77;84.80
68439;SHT31;55421;51.600;5.718;2024-02-28T00:20:07;2.73;84.92
68439;SHT31;55421;51.600;5.718;2024-02-28T00:22:36;2.72;85.01
68439;SHT31;55421;51.600;5.718;2024-02-28T00:25:05;2.68;84.93
68439;SHT31;55421;51.600;5.718;2024-02-28T00:27:32;2.68;84.98
68439;SHT31;55421;51.600;5.718;2024-02-28T00:30:00;2.70;85.22
68439;SHT31;55421;51.600;5.718;2024-02-28T00:32:27;2.73;85.33
68439;SHT31;55421;51.600;5.718;2024-02-28T00:34:53;2.76;85.36
68439;SHT31;55421;51.600;5.718;2024-02-28T00:37:20;2.77;85.26
68439;SHT31;55421;51.600;5.718;2024-02-28T00:39:47;2.77;85.16
68439;SHT31;55421;51.600;5.718;2024-02-28T00:42:14;2.75;85.05
68439;SHT31;55421;51.600;5.718;2024-02-28T00:44:40;2.75;85.07
68439;SHT31;55421;51.600;5.718;2024-02-28T00:47:09;2.74;85.15
68439;SHT31;55421;51.600;5.718;2024-02-28T00:49:36;2.74;85.30
68439;SHT31;55421;51.600;5.718;2024-02-28T00:52:04;2.76;85.52
68439;SHT31;55421;51.600;5.718;2024-02-28T00:54:31;2.79;85.77
68439;SHT31;55421;51.600;5.718;2024-02-28T00:56:57;2.82;85.96
68439;SHT31;55421;51.600;5.718;2024-02-28T00:59:24;2.84;86.06
68439;SHT31;55421;51.600;5.718;2024-02-28T01:01:50;2.88;86.15
68439;SHT31;55421;51.600;5.718;2024-02-28T01:04:17;2.92;86.28
68439;SHT31;55421;51.600;5.718;2024-02-28T01:06:44;2.96;86.34
68439;SHT31;55421;51.600;5.718;2024-02-28T01:09:10;2.98;86.40
68439;SHT31;55421;51.600;5.718;2024-02-28T01:11:37;3.02;86.48
68439;SHT31;55421;51.600;5.718;2024-02-28T01:14:03;3.05;86.53
68439;SHT31;55421;51.600;5.718;2024-02-28T01:16:30;3.10;86.59
68439;SHT31;55421;51.600;5.718;2024-02-28T01:18:57;3.13;86.59
68439;SHT31;55421;51.600;5.718;2024-02-28T01:21:24;3.14;86.53
68439;SHT31;55421;51.600;5.718;2024-02-28T01:23:51;3.15;86.49
68439;SHT31;55421;51.600;5.718;2024-02-28T01:26:18;3.14;86.40
68439;SHT31;55421;51.600;5.718;2024-02-28T01:28:47;3.15;86.39
68439;SHT31;55421;51.600;5.718;2024-02-28T01:31:15;3.14;86.30
68439;SHT31;55421;51.600;5.718;2024-02-28T01:33:42;3.14;86.30
68439;SHT31;55421;51.600;5.718;2024-02-28T01:36:08;3.10;86.21
68439;SHT31;55421;51.600;5.718;2024-02-28T01:38:35;3.03;86.10
68439;SHT31;55421;51.600;5.718;2024-02-28T01:41:01;2.95;86.03
68439;SHT31;55421;51.600;5.718;2024-02-28T01:43:28;2.88;86.08
68439;SHT31;55421;51.600;5.718;2024-02-28T01:45:55;2.81;86.07
68439;SHT31;55421;51.600;5.718;2024-02-28T01:48:22;2.76;86.21
68439;SHT31;55421;51.600;5.718;2024-02-28T01:50:48;2.72;86.30
68439;SHT31;55421;51.600;5.718;2024-02-28T01:53:15;2.68;86.30
68439;SHT31;55421;51.600;5.718;2024-02-28T01:55:42;2.65;86.28
68439;SHT31;55421;51.600;5.718;2024-02-28T01:58:09;2.64;86.28
68439;SHT31;55421;51.600;5.718;2024-02-28T02:00:36;2.63;86.35
68439;SHT31;55421;51.600;5.718;2024-02-28T02:03:04;2.62;86.32
68439;SHT31;55421;51.600;5.718;2024-02-28T02:05:31;2.60;86.22
68439;SHT31;55421;51.600;5.718;2024-02-28T02:07:57;2.57;86.14
68439;SHT31;55421;51.600;5.718;2024-02-28T02:10:25;2.55;86.17
68439;SHT31;55421;51.600;5.718;2024-02-28T02:12:52;2.55;86.22
68439;SHT31;55421;51.600;5.718;2024-02-28T02:15:19;2.54;86.24
68439;SHT31;55421;51.600;5.718;2024-02-28T02:17:45;2.54;86.29
68439;SHT31;55421;51.600;5.718;2024-02-28T02:20:13;2.54;86.39
68439;SHT31;55421;51.600;5.718;2024-02-28T02:22:41;2.54;86.41
68439;SHT31;55421;51.600;5.718;2024-02-28T02:25:07;2.53;86.37
68439;SHT31;55421;51.600;5.718;2024-02-28T02:27:35;2.49;86.28
68439;SHT31;55421;51.600;5.718;2024-02-28T02:30:01;2.45;86.30
68439;SHT31;55421;51.600;5.718;2024-02-28T02:32:28;2.42;86.30
68439;SHT31;55421;51.600;5.718;2024-02-28T02:34:55;2.42;86.46
68439;SHT31;55421;51.600;5.718;2024-02-28T02:37:22;2.43;86.59
68439;SHT31;55421;51.600;5.718;2024-02-28T02:39:48;2.44;86.63
68439;SHT31;55421;51.600;5.718;2024-02-28T02:42:15;2.44;86.69
68439;SHT31;55421;51.600;5.718;2024-02-28T02:44:41;2.44;86.65
68439;SHT31;55421;51.600;5.718;2024-02-28T02:47:08;2.44;86.69
68439;SHT31;55421;51.600;5.718;2024-02-28T02:49:35;2.47;86.78
68439;SHT31;55421;51.600;5.718;2024-02-28T02:52:01;2.47;86.78
68439;SHT31;55421;51.600;5.718;2024-02-28T02:54:28;2.50;86.79
68439;SHT31;55421;51.600;5.718;2024-02-28T02:56:54;2.51;86.79
68439;SHT31;55421;51.600;5.718;2024-02-28T02:59:21;2.53;86.80
68439;SHT31;55421;51.600;5.718;2024-02-28T03:01:49;2.54;86.78
68439;SHT31;55421;51.600;5.718;2024-02-28T03:04:16;2.52;86.60
68439;SHT31;55421;51.600;5.718;2024-02-28T03:06:43;2.46;86.41
68439;SHT31;55421;51.600;5.718;2024-02-28T03:09:09;2.40;86.40
68439;SHT31;55421;51.600;5.718;2024-02-28T03:11:36;2.36;86.43
68439;SHT31;55421;51.600;5.718;2024-02-28T03:14:02;2.33;86.58
68439;SHT31;55421;51.600;5.718;2024-02-28T03:16:29;2.31;86.66
68439;SHT31;55421;51.600;5.718;2024-02-28T03:18:56;2.30;86.65
68439;SHT31;55421;51.600;5.718;2024-02-28T03:21:23;2.28;86.62
68439;SHT31;55421;51.600;5.718;2024-02-28T03:23:49;2.28;86.58
68439;SHT31;55421;51.600;5.718;2024-02-28T03:26:16;2.28;86.56
68439;SHT31;55421;51.600;5.718;2024-02-28T03:28:42;2.30;86.56
68439;SHT31;55421;51.600;5.718;2024-02-28T03:31:09;2.29;86.48
68439;SHT31;55421;51.600;5.718;2024-02-28T03:33:35;2.30;86.40
68439;SHT31;55421;51.600;5.718;2024-02-28T03:36:02;2.28;86.40
68439;SHT31;55421;51.600;5.718;2024-02-28T03:38:29;2.30;86.40
68439;SHT31;55421;51.600;5.718;2024-02-28T03:40:56;2.28;86.46
68439;SHT31;55421;51.600;5.718;2024-02-28T03:43:22;2.28;86.53
68439;SHT31;55421;51.600;5.718;2024-02-28T03:45:49;2.27;86.60
68439;SHT31;55421;51.600;5.718;2024-02-28T03:48:16;2.23;86.60
68439;SHT31;55421;51.600;5.718;2024-02-28T03:50:43;2.20;86.56
68439;SHT31;55421;51.600;5.718;2024-02-28T03:53:09;2.15;86.51
68439;SHT31;55421;51.600;5.718;2024-02-28T03:55:36;2.13;86.60
68439;SHT31;55421;51.600;5.718;2024-02-28T03:58:03;2.12;86.62
68439;SHT31;55421;51.600;5.718;2024-02-28T04:00:30;2.13;86.68
68439;SHT31;55421;51.600;5.718;2024-02-28T04:02:56;2.14;86.70
68439;SHT31;55421;51.600;5.718;2024-02-28T04:05:23;2.14;86.71
68439;SHT31;55421;51.600;5.718;2024-02-28T04:07:50;2.16;86.83
68439;SHT31;55421;51.600;5.718;2024-02-28T04:10:16;2.18;86.99
68439;SHT31;55421;51.600;5.718;2024-02-28T04:12:43;2.17;86.95
68439;SHT31;55421;51.600;5.718;2024-02-28T04:15:13;2.14;86.89
68439;SHT31;55421;51.600;5.718;2024-02-28T04:17:40;2.14;86.88
68439;SHT31;55421;51.600;5.718;2024-02-28T04:20:10;2.14;86.77
68439;SHT31;55421;51.600;5.718;2024-02-28T04:22:38;2.16;86.68
68439;SHT31;55421;51.600;5.718;2024-02-28T04:25:05;2.14;86.55
68439;SHT31;55421;51.600;5.718;2024-02-28T04:27:35;2.11;86.45
68439;SHT31;55421;51.600;5.718;2024-02-28T04:30:03;2.06;86.44
68439;SHT31;55421;51.600;5.718;2024-02-28T04:32:33;2.02;86.45
68439;SHT31;55421;51.600;5.718;2024-02-28T04:35:01;1.96;86.45
68439;SHT31;55421;51.600;5.718;2024-02-28T04:37:29;1.93;86.52
68439;SHT31;55421;51.600;5.718;2024-02-28T04:39:55;1.91;86.52
68439;SHT31;55421;51.600;5.718;2024-02-28T04:42:22;1.89;86.51
68439;SHT31;55421;51.600;5.718;2024-02-28T04:44:48;1.88;86.53
68439;SHT31;55421;51.600;5.718;2024-02-28T04:47:15;1.88;86.62
68439;SHT31;55421;51.600;5.718;2024-02-28T04:49:41;1.90;86.70
68439;SHT31;55421;51.600;5.718;2024-02-28T04:52:08;1.92;86.64
68439;SHT31;55421;51.600;5.718;2024-02-28T04:54:34;1.91;86.72
68439;SHT31;55421;51.600;5.718;2024-02-28T04:57:01;1.90;86.72
68439;SHT31;55421;51.600;5.718;2024-02-28T04:59:29;1.87;86.59
68439;SHT31;55421;51.600;5.718;2024-02-28T05:01:56;1.83;86.59
68439;SHT31;55421;51.600;5.718;2024-02-28T05:04:22;1.82;86.58
68439;SHT31;55421;51.600;5.718;2024-02-28T05:06:49;1.81;86.49
68439;SHT31;55421;51.600;5.718;2024-02-28T05:09:16;1.82;86.53
68439;SHT31;55421;51.600;5.718;2024-02-28T05:11:43;1.84;86.60
68439;SHT31;55421;51.600;5.718;2024-02-28T05:14:11;1.84;86.64
68439;SHT31;55421;51.600;5.718;2024-02-28T05:16:37;1.85;86.70
68439;SHT31;55421;51.600;5.718;2024-02-28T05:19:04;1.82;86.70
68439;SHT31;55421;51.600;5.718;2024-02-28T05:21:30;1.80;86.70
68439;SHT31;55421;51.600;5.718;2024-02-28T05:23:57;1.80;86.75
68439;SHT31;55421;51.600;5.718;2024-02-28T05:26:23;1.81;86.74
68439;SHT31;55421;51.600;5.718;2024-02-28T05:28:51;1.82;86.66
68439;SHT31;55421;51.600;5.718;2024-02-28T05:31:21;1.82;86.58
68439;SHT31;55421;51.600;5.718;2024-02-28T05:33:52;1.80;86.54
68439;SHT31;55421;51.600;5.718;2024-02-28T05:36:21;1.80;86.67
68439;SHT31;55421;51.600;5.718;2024-02-28T05:38:48;1.79;86.70
68439;SHT31;55421;51.600;5.718;2024-02-28T05:41:16;1.79;86.80
68439;SHT31;55421;51.600;5.718;2024-02-28T05:43:44;1.78;86.74
68439;SHT31;55421;51.600;5.718;2024-02-28T05:46:11;1.75;86.60
68439;SHT31;55421;51.600;5.718;2024-02-28T05:48:40;1.75;86.58
68439;SHT31;55421;51.600;5.718;2024-02-28T05:51:07;1.78;86.52
68439;SHT31;55421;51.600;5.718;2024-02-28T05:53:34;1.82;86.55
68439;SHT31;55421;51.600;5.718;2024-02-28T05:56:02;1.82;86.50
68439;SHT31;55421;51.600;5.718;2024-02-28T05:58:29;1.83;86.58
68439;SHT31;55421;51.600;5.718;2024-02-28T06:00:56;1.83;86.63
68439;SHT31;55421;51.600;5.718;2024-02-28T06:03:23;1.81;86.62
68439;SHT31;55421;51.600;5.718;2024-02-28T06:05:50;1.81;86.67
68439;SHT31;55421;51.600;5.718;2024-02-28T06:08:16;1.83;86.69
68439;SHT31;55421;51.600;5.718;2024-02-28T06:10:43;1.85;86.70
68439;SHT31;55421;51.600;5.718;2024-02-28T06:13:12;1.88;86.73
68439;SHT31;55421;51.600;5.718;2024-02-28T06:15:39;1.93;86.79
68439;SHT31;55421;51.600;5.718;2024-02-28T06:18:06;1.97;86.90
68439;SHT31;55421;51.600;5.718;2024-02-28T06:20:32;1.99;86.92
68439;SHT31;55421;51.600;5.718;2024-02-28T06:22:59;2.00;86.90
68439;SHT31;55421;51.600;5.718;2024-02-28T06:25:25;1.98;86.83
68439;SHT31;55421;51.600;5.718;2024-02-28T06:27:53;2.00;86.92
68439;SHT31;55421;51.600;5.718;2024-02-28T06:30:20;2.01;86.91
68439;SHT31;55421;51.600;5.718;2024-02-28T06:32:47;2.02;86.87
68439;SHT31;55421;51.600;5.718;2024-02-28T06:35:13;2.07;86.95
68439;SHT31;55421;51.600;5.718;2024-02-28T06:37:39;2.12;86.98
68439;SHT31;55421;51.600;5.718;2024-02-28T06:40:06;2.15;87.08
68439;SHT31;55421;51.600;5.718;2024-02-28T06:42:36;2.19;87.12
68439;SHT31;55421;51.600;5.718;2024-02-28T06:45:03;2.20;87.11
68439;SHT31;55421;51.600;5.718;2024-02-28T06:47:30;2.19;87.00
68439;SHT31;55421;51.600;5.718;2024-02-28T06:49:58;2.22;87.03
68439;SHT31;55421;51.600;5.718;2024-02-28T06:52:25;2.24;86.95
68439;SHT31;55421;51.600;5.718;2024-02-28T06:54:51;2.27;86.90
68439;SHT31;55421;51.600;5.718;2024-02-28T06:57:18;2.31;86.92
68439;SHT31;55421;51.600;5.718;2024-02-28T06:59:44;2.38;87.10
68439;SHT31;55421;51.600;5.718;2024-02-28T07:02:11;2.42;87.10
68439;SHT31;55421;51.600;5.718;2024-02-28T07:04:38;2.45;86.97
68439;SHT31;55421;51.600;5.718;2024-02-28T07:07:04;2.48;86.90
68439;SHT31;55421;51.600;5.718;2024-02-28T07:09:31;2.50;86.89
68439;SHT31;55421;51.600;5.718;2024-02-28T07:11:59;2.55;86.83
68439;SHT31;55421;51.600;5.718;2024-02-28T07:14:27;2.62;86.80
68439;SHT31;55421;51.600;5.718;2024-02-28T07:16:53;2.67;86.72
68439;SHT31;55421;51.600;5.718;2024-02-28T07:19:21;2.74;86.70
68439;SHT31;55421;51.600;5.718;2024-02-28T07:21:47;2.80;86.59
68439;SHT31;55421;51.600;5.718;2024-02-28T07:24:14;2.86;86.56
68439;SHT31;55421;51.600;5.718;2024-02-28T07:26:42;2.88;86.50
68439;SHT31;55421;51.600;5.718;2024-02-28T07:29:09;2.92;86.50
68439;SHT31;55421;51.600;5.718;2024-02-28T07:31:35;2.93;86.50
68439;SHT31;55421;51.600;5.718;2024-02-28T07:34:02;2.93;86.45
68439;SHT31;55421;51.600;5.718;2024-02-28T07:36:28;2.94;86.40
68439;SHT31;55421;51.600;5.718;2024-02-28T07:38:55;2.96;86.40
68439;SHT31;55421;51.600;5.718;2024-02-28T07:41:21;2.97;86.38
68439;SHT31;55421;51.600;5.718;2024-02-28T07:43:47;3.01;86.38
68439;SHT31;55421;51.600;5.718;2024-02-28T07:46:14;3.04;86.39
68439;SHT31;55421;51.600;5.718;2024-02-28T07:48:40;3.09;86.40
68439;SHT31;55421;51.600;5.718;2024-02-28T07:51:07;3.13;86.41
68439;SHT31;55421;51.600;5.718;2024-02-28T07:53:35;3.16;86.43
68439;SHT31;55421;51.600;5.718;2024-02-28T07:56:02;3.19;86.49
68439;SHT31;55421;51.600;5.718;2024-02-28T07:58:29;3.20;86.48
68439;SHT31;55421;51.600;5.718;2024-02-28T08:00:55;3.23;86.41
68439;SHT31;55421;51.600;5.718;2024-02-28T08:03:22;3.27;86.48
68439;SHT31;55421;51.600;5.718;2024-02-28T08:05:48;3.30;86.49
68439;SHT31;55421;51.600;5.718;2024-02-28T08:08:15;3.34;86.46
68439;SHT31;55421;51.600;5.718;2024-02-28T08:10:41;3.39;86.51
68439;SHT31;55421;51.600;5.718;2024-02-28T08:13:08;3.46;86.59
68439;SHT31;55421;51.600;5.718;2024-02-28T08:15:35;3.53;86.60
68439;SHT31;55421;51.600;5.718;2024-02-28T08:18:01;3.59;86.56
68439;SHT31;55421;51.600;5.718;2024-02-28T08:20:28;3.65;86.50
68439;SHT31;55421;51.600;5.718;2024-02-28T08:22:54;3.68;86.49
68439;SHT31;55421;51.600;5.718;2024-02-28T08:25:23;3.74;86.49
68439;SHT31;55421;51.600;5.718;2024-02-28T08:27:49;3.77;86.41
68439;SHT31;55421;51.600;5.718;2024-02-28T08:30:16;3.82;86.41
68439;SHT31;55421;51.600;5.718;2024-02-28T08:32:43;3.85;86.31
68439;SHT31;55421;51.600;5.718;2024-02-28T08:35:10;3.90;86.31
68439;SHT31;55421;51.600;5.718;2024-02-28T08:37:40;3.95;86.35
68439;SHT31;55421;51.600;5.718;2024-02-28T08:40:07;4.02;86.39
68439;SHT31;55421;51.600;5.718;2024-02-28T08:42:34;4.06;86.32
68439;SHT31;55421;51.600;5.718;2024-02-28T08:45:01;4.11;86.30
68439;SHT31;55421;51.600;5.718;2024-02-28T08:47:29;4.16;86.30
68439;SHT31;55421;51.600;5.718;2024-02-28T08:49:56;4.21;86.30
68439;SHT31;55421;51.600;5.718;2024-02-28T08:52:22;4.26;86.27
68439;SHT31;55421;51.600;5.718;2024-02-28T08:54:49;4.29;86.20
68439;SHT31;55421;51.600;5.718;2024-02-28T08:57:16;4.34;86.27
68439;SHT31;55421;51.600;5.718;2024-02-28T08:59:43;4.43;86.34
68439;SHT31;55421;51.600;5.718;2024-02-28T09:02:09;4.55;86.43
68439;SHT31;55421;51.600;5.718;2024-02-28T09:04:37;4.68;86.50
68439;SHT31;55421;51.600;5.718;2024-02-28T09:07:03;4.81;86.41
68439;SHT31;55421;51.600;5.718;2024-02-28T09:09:30;4.93;86.36
68439;SHT31;55421;51.600;5.718;2024-02-28T09:12:00;5.04;86.25
68439;SHT31;55421;51.600;5.718;2024-02-28T09:14:29;5.14;86.20
68439;SHT31;55421;51.600;5.718;2024-02-28T09:16:56;5.20;86.18
68439;SHT31;55421;51.600;5.718;2024-02-28T09:19:32;5.24;86.15
68439;SHT31;55421;51.600;5.718;2024-02-28T09:21:59;5.28;86.11
68439;SHT31;55421;51.600;5.718;2024-02-28T09:24:26;5.36;86.18
68439;SHT31;55421;51.600;5.718;2024-02-28T09:26:53;5.47;86.18
68439;SHT31;55421;51.600;5.718;2024-02-28T09:29:19;5.58;86.11
68439;SHT31;55421;51.600;5.718;2024-02-28T09:31:46;5.69;86.10
68439;SHT31;55421;51.600;5.718;2024-02-28T09:34:12;5.76;85.99
68439;SHT31;55421;51.600;5.718;2024-02-28T09:36:42;5.83;85.88
68439;SHT31;55421;51.600;5.718;2024-02-28T09:39:12;5.92;85.80
68439;SHT31;55421;51.600;5.718;2024-02-28T09:41:39;6.03;85.80
68439;SHT31;55421;51.600;5.718;2024-02-28T09:44:07;6.13;85.64
68439;SHT31;55421;51.600;5.718;2024-02-28T09:46:34;6.23;85.50
68439;SHT31;55421;51.600;5.718;2024-02-28T09:49:03;6.34;85.49
68439;SHT31;55421;51.600;5.718;2024-02-28T09:51:34;6.45;85.42
68439;SHT31;55421;51.600;5.718;2024-02-28T09:54:02;6.57;85.36
68439;SHT31;55421;51.600;5.718;2024-02-28T09:56:31;6.64;85.14
68439;SHT31;55421;51.600;5.718;2024-02-28T09:58:59;6.71;85.07
68439;SHT31;55421;51.600;5.718;2024-02-28T10:01:29;6.75;84.91
68439;SHT31;55421;51.600;5.718;2024-02-28T10:03:56;6.78;84.74
68439;SHT31;55421;51.600;5.718;2024-02-28T10:06:26;6.81;84.69
68439;SHT31;55421;51.600;5.718;2024-02-28T10:08:53;6.87;84.70
68439;SHT31;55421;51.600;5.718;2024-02-28T10:11:23;6.93;84.54
68439;SHT31;55421;51.600;5.718;2024-02-28T10:13:52;6.99;84.50
68439;SHT31;55421;51.600;5.718;2024-02-28T10:16:21;7.06;84.40
68439;SHT31;55421;51.600;5.718;2024-02-28T10:18:49;7.12;84.26
68439;SHT31;55421;51.600;5.718;2024-02-28T10:21:15;7.19;84.19
68439;SHT31;55421;51.600;5.718;2024-02-28T10:23:42;7.23;84.03
68439;SHT31;55421;51.600;5.718;2024-02-28T10:26:09;7.25;83.96
68439;SHT31;55421;51.600;5.718;2024-02-28T10:28:37;7.28;83.95
68439;SHT31;55421;51.600;5.718;2024-02-28T10:31:06;7.32;83.90
68439;SHT31;55421;51.600;5.718;2024-02-28T10:33:33;7.38;83.83
68439;SHT31;55421;51.600;5.718;2024-02-28T10:36:05;7.47;83.80
68439;SHT31;55421;51.600;5.718;2024-02-28T10:38:32;7.57;83.78
68439;SHT31;55421;51.600;5.718;2024-02-28T10:41:00;7.69;83.74
68439;SHT31;55421;51.600;5.718;2024-02-28T10:43:30;7.83;83.70
68439;SHT31;55421;51.600;5.718;2024-02-28T10:46:00;8.00;83.66
68439;SHT31;55421;51.600;5.718;2024-02-28T10:48:27;8.08;83.36
68439;SHT31;55421;51.600;5.718;2024-02-28T10:50:54;8.16;83.10
68439;SHT31;55421;51.600;5.718;2024-02-28T10:53:22;8.22;83.04
68439;SHT31;55421;51.600;5.718;2024-02-28T10:56:09;8.28;82.96
68439;SHT31;55421;51.600;5.718;2024-02-28T10:58:41;8.32;82.91
68439;SHT31;55421;51.600;5.718;2024-02-28T11:01:18;8.35;82.80
68439;SHT31;55421;51.600;5.718;2024-02-28T11:03:45;8.35;82.70
68439;SHT31;55421;51.600;5.718;2024-02-28T11:06:16;8.36;82.78
68439;SHT31;55421;51.600;5.718;2024-02-28T11:08:45;8.36;82.69
68439;SHT31;55421;51.600;5.718;2024-02-28T11:11:19;8.37;82.71
68439;SHT31;55421;51.600;5.718;2024-02-28T11:13:53;8.43;82.82
68439;SHT31;55421;51.600;5.718;2024-02-28T11:16:34;8.48;82.84
68439;SHT31;55421;51.600;5.718;2024-02-28T11:19:02;8.51;82.79
68439;SHT31;55421;51.600;5.718;2024-02-28T11:21:33;8.55;82.76
68439;SHT31;55421;51.600;5.718;2024-02-28T11:24:01;8.56;82.68
68439;SHT31;55421;51.600;5.718;2024-02-28T11:26:29;8.54;82.55
68439;SHT31;55421;51.600;5.718;2024-02-28T11:28:56;8.53;82.53
68439;SHT31;55421;51.600;5.718;2024-02-28T11:31:23;8.56;82.68
68439;SHT31;55421;51.600;5.718;2024-02-28T11:33:49;8.58;82.76
68439;SHT31;55421;51.600;5.718;2024-02-28T11:36:16;8.59;82.70
68439;SHT31;55421;51.600;5.718;2024-02-28T11:38:43;8.58;82.66
68439;SHT31;55421;51.600;5.718;2024-02-28T11:41:10;8.57;82.63
68439;SHT31;55421;51.600;5.718;2024-02-28T11:43:37;8.56;82.70
68439;SHT31;55421;51.600;5.718;2024-02-28T11:46:09;8.58;82.81
68439;SHT31;55421;51.600;5.718;2024-02-28T11:48:37;8.56;82.72
68439;SHT31;55421;51.600;5.718;2024-02-28T11:51:03;8.56;82.61
68439;SHT31;55421;51.600;5.718;2024-02-28T11:53:30;8.63;82.79
68439;SHT31;55421;51.600;5.718;2024-02-28T11:55:56;8.75;82.94
68439;SHT31;55421;51.600;5.718;2024-02-28T11:58:23;8.85;82.91
68439;SHT31;55421;51.600;5.718;2024-02-28T12:00:50;8.94;82.90
68439;SHT31;55421;51.600;5.718;2024-02-28T12:03:23;9.00;82.79
68439;SHT31;55421;51.600;5.718;2024-02-28T12:05:51;9.04;82.64
68439;SHT31;55421;51.600;5.718;2024-02-28T12:08:19;9.06;82.51
68439;SHT31;55421;51.600;5.718;2024-02-28T12:10:46;9.08;82.41
68439;SHT31;55421;51.600;5.718;2024-02-28T12:13:20;9.12;82.49
68439;SHT31;55421;51.600;5.718;2024-02-28T12:15:49;9.16;82.44
68439;SHT31;55421;51.600;5.718;2024-02-28T12:18:15;9.21;82.37
68439;SHT31;55421;51.600;5.718;2024-02-28T12:20:42;9.27;82.38
68439;SHT31;55421;51.600;5.718;2024-02-28T12:23:08;9.33;82.38
68439;SHT31;55421;51.600;5.718;2024-02-28T12:25:35;9.37;82.28
68439;SHT31;55421;51.600;5.718;2024-02-28T12:28:02;9.38;81.93
68439;SHT31;55421;51.600;5.718;2024-02-28T12:30:31;9.38;81.98
68439;SHT31;55421;51.600;5.718;2024-02-28T12:33:06;9.38;81.90
68439;SHT31;55421;51.600;5.718;2024-02-28T12:35:33;9.36;81.84
68439;SHT31;55421;51.600;5.718;2024-02-28T12:37:59;9.33;81.79
68439;SHT31;55421;51.600;5.718;2024-02-28T12:40:26;9.31;81.82
68439;SHT31;55421;51.600;5.718;2024-02-28T12:42:53;9.30;81.84
68439;SHT31;55421;51.600;5.718;2024-02-28T12:45:20;9.33;81.97
68439;SHT31;55421;51.600;5.718;2024-02-28T12:47:46;9.36;81.85
68439;SHT31;55421;51.600;5.718;2024-02-28T12:50:13;9.40;81.73
68439;SHT31;55421;51.600;5.718;2024-02-28T12:52:39;9.45;81.78
68439;SHT31;55421;51.600;5.718;2024-02-28T12:55:06;9.49;81.78
68439;SHT31;55421;51.600;5.718;2024-02-28T12:57:33;9.50;81.73
68439;SHT31;55421;51.600;5.718;2024-02-28T13:00:00;9.52;81.70
68439;SHT31;55421;51.600;5.718;2024-02-28T13:02:27;9.52;81.67
68439;SHT31;55421;51.600;5.718;2024-02-28T13:04:53;9.52;81.70
68439;SHT31;55421;51.600;5.718;2024-02-28T13:07:20;9.51;81.60
68439;SHT31;55421;51.600;5.718;2024-02-28T13:09:48;9.50;81.52
68439;SHT31;55421;51.600;5.718;2024-02-28T13:12:15;9.51;81.54
68439;SHT31;55421;51.600;5.718;2024-02-28T13:14:41;9.52;81.41
68439;SHT31;55421;51.600;5.718;2024-02-28T13:17:08;9.51;81.31
68439;SHT31;55421;51.600;5.718;2024-02-28T13:19:36;9.50;81.42
68439;SHT31;55421;51.600;5.718;2024-02-28T13:22:03;9.53;81.52
68439;SHT31;55421;51.600;5.718;2024-02-28T13:24:30;9.55;81.58
68439;SHT31;55421;51.600;5.718;2024-02-28T13:26:57;9.58;81.60
68439;SHT31;55421;51.600;5.718;2024-02-28T13:29:23;9.58;81.59
68439;SHT31;55421;51.600;5.718;2024-02-28T13:31:50;9.62;81.54
68439;SHT31;55421;51.600;5.718;2024-02-28T13:34:17;9.68;81.55
68439;SHT31;55421;51.600;5.718;2024-02-28T13:36:43;9.72;81.34
68439;SHT31;55421;51.600;5.718;2024-02-28T13:39:10;9.75;81.22
68439;SHT31;55421;51.600;5.718;2024-02-28T13:41:39;9.79;81.11
68439;SHT31;55421;51.600;5.718;2024-02-28T13:44:06;9.80;80.87
68439;SHT31;55421;51.600;5.718;2024-02-28T13:46:32;9.78;80.86
68439;SHT31;55421;51.600;5.718;2024-02-28T13:48:59;9.80;81.08
68439;SHT31;55421;51.600;5.718;2024-02-28T13:51:26;9.84;81.10
68439;SHT31;55421;51.600;5.718;2024-02-28T13:53:52;9.88;81.10
68439;SHT31;55421;51.600;5.718;2024-02-28T13:56:20;9.93;81.04
68439;SHT31;55421;51.600;5.718;2024-02-28T13:58:47;9.96;80.98
68439;SHT31;55421;51.600;5.718;2024-02-28T14:01:14;10.03;80.91
68439;SHT31;55421;51.600;5.718;2024-02-28T14:03:41;10.05;80.69
68439;SHT31;55421;51.600;5.718;2024-02-28T14:06:07;10.04;80.32
68439;SHT31;55421;51.600;5.718;2024-02-28T14:08:34;10.03;80.30
68439;SHT31;55421;51.600;5.718;2024-02-28T14:11:00;10.01;80.22
68439;SHT31;55421;51.600;5.718;2024-02-28T14:13:27;9.98;80.29
68439;SHT31;55421;51.600;5.718;2024-02-28T14:15:53;9.97;80.30
68439;SHT31;55421;51.600;5.718;2024-02-28T14:18:21;9.93;80.32
68439;SHT31;55421;51.600;5.718;2024-02-28T14:20:47;9.88;80.35
68439;SHT31;55421;51.600;5.718;2024-02-28T14:23:14;9.82;80.28
68439;SHT31;55421;51.600;5.718;2024-02-28T14:25:41;9.74;80.24
68439;SHT31;55421;51.600;5.718;2024-02-28T14:28:09;9.73;80.42
68439;SHT31;55421;51.600;5.718;2024-02-28T14:30:36;9.73;80.48
68439;SHT31;55421;51.600;5.718;2024-02-28T14:33:02;9.75;80.40
68439;SHT31;55421;51.600;5.718;2024-02-28T14:35:29;9.75;80.40
68439;SHT31;55421;51.600;5.718;2024-02-28T14:37:56;9.78;80.44
68439;SHT31;55421;51.600;5.718;2024-02-28T14:40:22;9.77;80.49
68439;SHT31;55421;51.600;5.718;2024-02-28T14:42:49;9.77;80.60
68439;SHT31;55421;51.600;5.718;2024-02-28T14:45:16;9.76;80.60
68439;SHT31;55421;51.600;5.718;2024-02-28T14:47:43;9.72;80.59
68439;SHT31;55421;51.600;5.718;2024-02-28T14:50:11;9.68;80.60
68439;SHT31;55421;51.600;5.718;2024-02-28T14:52:38;9.66;80.66
68439;SHT31;55421;51.600;5.718;2024-02-28T14:55:06;9.65;80.70
68439;SHT31;55421;51.600;5.718;2024-02-28T14:57:38;9.66;80.83
68439;SHT31;55421;51.600;5.718;2024-02-28T15:00:09;9.69;80.99
68439;SHT31;55421;51.600;5.718;2024-02-28T15:02:40;9.73;80.97
68439;SHT31;55421;51.600;5.718;2024-02-28T15:05:08;9.74;80.88
68439;SHT31;55421;51.600;5.718;2024-02-28T15:07:35;9.75;80.98
68439;SHT31;55421;51.600;5.718;2024-02-28T15:10:05;9.75;81.02
68439;SHT31;55421;51.600;5.718;2024-02-28T15:12:33;9.75;81.07
68439;SHT31;55421;51.600;5.718;2024-02-28T15:15:01;9.76;81.15
68439;SHT31;55421;51.600;5.718;2024-02-28T15:17:30;9.77;81.10
68439;SHT31;55421;51.600;5.718;2024-02-28T15:19:57;9.80;81.16
68439;SHT31;55421;51.600;5.718;2024-02-28T15:22:25;9.84;81.13
68439;SHT31;55421;51.600;5.718;2024-02-28T15:24:51;9.90;81.10
68439;SHT31;55421;51.600;5.718;2024-02-28T15:27:18;9.93;81.13
68439;SHT31;55421;51.600;5.718;2024-02-28T15:29:45;9.95;80.96
68439;SHT31;55421;51.600;5.718;2024-02-28T15:32:11;9.94;80.83
68439;SHT31;55421;51.600;5.718;2024-02-28T15:34:38;9.94;80.88
68439;SHT31;55421;51.600;5.718;2024-02-28T15:37:05;9.94;80.92
68439;SHT31;55421;51.600;5.718;2024-02-28T15:39:32;9.92;80.90
68439;SHT31;55421;51.600;5.718;2024-02-28T15:41:59;9.89;80.84
68439;SHT31;55421;51.600;5.718;2024-02-28T15:44:26;9.84;80.80